sensor_id;sensor_type;location;lat;lon;timestamp;pressure;altitude;pressure_sealevel;temperature;humidity
54600;BME280;40500;51.084;16.958;2023-02-07T00:02:29;102910.54;;;-5.96;100.00
54600;BME280;40500;51.084;16.958;2023-02-07T00:05:02;102916.09;;;-6.02;100.00
54600;BME280;40500;51.084;16.958;2023-02-07T00:07:34;102900.50;;;-6.10;100.00
54600;BME280;40500;51.084;16.958;2023-02-07T00:10:10;102899.04;;;-6.13;100.00
54600;BME280;40500;51.084;16.958;2023-02-07T00:12:45;102895.52;;;-6.14;100.00
54600;BME280;40500;51.084;16.958;2023-02-07T00:15:16;102897.31;;;-6.15;100.00
54600;BME280;40500;51.084;16.958;2023-02-07T00:17:49;102900.77;;;-6.19;100.00
54600;BME280;40500;51.084;16.958;2023-02-07T00:23:54;102915.15;;;-6.31;100.00
54600;BME280;40500;51.084;16.958;2023-02-07T00:26:51;102917.52;;;-6.39;100.00
54600;BME280;40500;51.084;16.958;2023-02-07T00:29:22;102921.41;;;-6.48;100.00
54600;BME280;40500;51.084;16.958;2023-02-07T00:31:55;102927.73;;;-6.53;100.00
54600;BME280;40500;51.084;16.958;2023-02-07T00:34:27;102931.84;;;-6.55;100.00
54600;BME280;40500;51.084;16.958;2023-02-07T00:37:00;102935.88;;;-6.54;100.00
54600;BME280;40500;51.084;16.958;2023-02-07T00:39:35;102937.87;;;-6.49;100.00
54600;BME280;40500;51.084;16.958;2023-02-07T00:42:07;102937.58;;;-6.43;100.00
54600;BME280;40500;51.084;16.958;2023-02-07T00:44:45;102932.02;;;-6.39;100.00
54600;BME280;40500;51.084;16.958;2023-02-07T00:47:16;102927.70;;;-6.33;100.00
54600;BME280;40500;51.084;16.958;2023-02-07T00:49:47;102921.46;;;-6.29;100.00
54600;BME280;40500;51.084;16.958;2023-02-07T00:52:20;102926.38;;;-6.24;100.00
54600;BME280;40500;51.084;16.958;2023-02-07T00:54:51;102921.48;;;-6.20;100.00
54600;BME280;40500;51.084;16.958;2023-02-07T00:57:25;102915.52;;;-6.16;100.00
54600;BME280;40500;51.084;16.958;2023-02-07T01:11:40;102867.98;;;-6.02;100.00
54600;BME280;40500;51.084;16.958;2023-02-07T01:14:14;102862.61;;;-5.99;100.00
54600;BME280;40500;51.084;16.958;2023-02-07T01:16:46;102855.72;;;-5.99;100.00
54600;BME280;40500;51.084;16.958;2023-02-07T01:19:19;102851.30;;;-5.96;100.00
54600;BME280;40500;51.084;16.958;2023-02-07T01:21:52;102851.05;;;-5.94;100.00
54600;BME280;40500;51.084;16.958;2023-02-07T01:24:23;102846.91;;;-5.93;100.00
54600;BME280;40500;51.084;16.958;2023-02-07T01:26:56;102848.90;;;-5.90;100.00
54600;BME280;40500;51.084;16.958;2023-02-07T01:29:39;102842.35;;;-5.94;100.00
54600;BME280;40500;51.084;16.958;2023-02-07T01:32:12;102845.89;;;-6.01;100.00
54600;BME280;40500;51.084;16.958;2023-02-07T01:34:43;102842.89;;;-6.06;100.00
54600;BME280;40500;51.084;16.958;2023-02-07T01:37:18;102834.19;;;-6.14;100.00
54600;BME280;40500;51.084;16.958;2023-02-07T01:46:29;102834.50;;;-6.25;100.00
54600;BME280;40500;51.084;16.958;2023-02-07T01:49:25;102833.66;;;-6.32;100.00
54600;BME280;40500;51.084;16.958;2023-02-07T01:52:16;102832.35;;;-6.49;100.00
54600;BME280;40500;51.084;16.958;2023-02-07T01:58:18;102840.82;;;-6.69;100.00
54600;BME280;40500;51.084;16.958;2023-02-07T02:00:52;102830.75;;;-6.75;100.00
54600;BME280;40500;51.084;16.958;2023-02-07T02:03:24;102830.52;;;-6.82;100.00
54600;BME280;40500;51.084;16.958;2023-02-07T02:05:56;102823.84;;;-6.86;100.00
54600;BME280;40500;51.084;16.958;2023-02-07T02:08:35;102827.36;;;-6.92;100.00
54600;BME280;40500;51.084;16.958;2023-02-07T02:11:23;102826.23;;;-6.93;100.00
54600;BME280;40500;51.084;16.958;2023-02-07T02:14:15;102833.59;;;-6.91;100.00
54600;BME280;40500;51.084;16.958;2023-02-07T02:17:08;102839.63;;;-6.90;100.00
54600;BME280;40500;51.084;16.958;2023-02-07T02:23:18;102850.61;;;-6.91;100.00
54600;BME280;40500;51.084;16.958;2023-02-07T02:26:18;102858.92;;;-6.89;100.00
54600;BME280;40500;51.084;16.958;2023-02-07T02:29:28;102864.49;;;-6.85;100.00
54600;BME280;40500;51.084;16.958;2023-02-07T02:32:17;102858.53;;;-6.81;100.00
54600;BME280;40500;51.084;16.958;2023-02-07T02:35:02;102848.96;;;-6.79;100.00
54600;BME280;40500;51.084;16.958;2023-02-07T02:38:20;102853.73;;;-6.76;100.00
54600;BME280;40500;51.084;16.958;2023-02-07T02:40:58;102857.38;;;-6.77;100.00
54600;BME280;40500;51.084;16.958;2023-02-07T02:43:44;102849.05;;;-6.79;100.00
54600;BME280;40500;51.084;16.958;2023-02-07T02:46:38;102842.46;;;-6.78;100.00
54600;BME280;40500;51.084;16.958;2023-02-07T02:49:12;102848.03;;;-6.73;100.00
54600;BME280;40500;51.084;16.958;2023-02-07T02:51:42;102839.73;;;-6.74;100.00
54600;BME280;40500;51.084;16.958;2023-02-07T02:54:28;102841.75;;;-6.80;100.00
54600;BME280;40500;51.084;16.958;2023-02-07T02:57:26;102849.67;;;-6.84;100.00
54600;BME280;40500;51.084;16.958;2023-02-07T03:00:31;102844.30;;;-6.84;100.00
54600;BME280;40500;51.084;16.958;2023-02-07T03:07:07;102842.39;;;-7.04;100.00
54600;BME280;40500;51.084;16.958;2023-02-07T03:10:31;102847.50;;;-7.21;100.00
54600;BME280;40500;51.084;16.958;2023-02-07T03:16:59;102844.77;;;-7.35;100.00
54600;BME280;40500;51.084;16.958;2023-02-07T03:19:36;102846.02;;;-7.40;100.00
54600;BME280;40500;51.084;16.958;2023-02-07T03:22:12;102850.11;;;-7.41;100.00
54600;BME280;40500;51.084;16.958;2023-02-07T03:24:45;102847.63;;;-7.42;100.00
54600;BME280;40500;51.084;16.958;2023-02-07T03:27:19;102855.73;;;-7.43;100.00
54600;BME280;40500;51.084;16.958;2023-02-07T03:29:52;102853.11;;;-7.44;100.00
54600;BME280;40500;51.084;16.958;2023-02-07T03:32:29;102850.05;;;-7.38;100.00
54600;BME280;40500;51.084;16.958;2023-02-07T03:35:04;102855.06;;;-7.32;100.00
54600;BME280;40500;51.084;16.958;2023-02-07T03:37:38;102848.64;;;-7.32;100.00
54600;BME280;40500;51.084;16.958;2023-02-07T03:40:13;102855.29;;;-7.30;100.00
54600;BME280;40500;51.084;16.958;2023-02-07T03:42:47;102856.24;;;-7.23;100.00
54600;BME280;40500;51.084;16.958;2023-02-07T03:45:22;102859.92;;;-7.21;100.00
54600;BME280;40500;51.084;16.958;2023-02-07T03:47:55;102865.98;;;-7.18;100.00
54600;BME280;40500;51.084;16.958;2023-02-07T03:50:31;102870.00;;;-7.13;100.00
54600;BME280;40500;51.084;16.958;2023-02-07T03:53:00;102872.95;;;-7.09;100.00
54600;BME280;40500;51.084;16.958;2023-02-07T03:55:28;102872.48;;;-7.06;100.00
54600;BME280;40500;51.084;16.958;2023-02-07T03:57:59;102879.32;;;-7.02;100.00
54600;BME280;40500;51.084;16.958;2023-02-07T04:00:29;102876.40;;;-7.01;100.00
54600;BME280;40500;51.084;16.958;2023-02-07T04:02:59;102878.36;;;-6.96;100.00
54600;BME280;40500;51.084;16.958;2023-02-07T04:05:33;102881.71;;;-6.92;100.00
54600;BME280;40500;51.084;16.958;2023-02-07T04:08:04;102884.30;;;-6.91;100.00
54600;BME280;40500;51.084;16.958;2023-02-07T04:10:34;102889.77;;;-6.89;100.00
54600;BME280;40500;51.084;16.958;2023-02-07T04:13:04;102884.93;;;-6.86;100.00
54600;BME280;40500;51.084;16.958;2023-02-07T04:15:38;102876.21;;;-6.94;100.00
54600;BME280;40500;51.084;16.958;2023-02-07T04:18:08;102870.46;;;-7.06;100.00
54600;BME280;40500;51.084;16.958;2023-02-07T04:20:46;102871.50;;;-7.13;100.00
54600;BME280;40500;51.084;16.958;2023-02-07T04:23:26;102867.84;;;-7.14;100.00
54600;BME280;40500;51.084;16.958;2023-02-07T04:26:00;102866.05;;;-7.13;100.00
54600;BME280;40500;51.084;16.958;2023-02-07T04:28:29;102867.61;;;-7.16;100.00
54600;BME280;40500;51.084;16.958;2023-02-07T04:30:58;102872.02;;;-7.20;100.00
54600;BME280;40500;51.084;16.958;2023-02-07T04:33:27;102874.19;;;-7.26;100.00
54600;BME280;40500;51.084;16.958;2023-02-07T04:35:56;102874.56;;;-7.33;100.00
54600;BME280;40500;51.084;16.958;2023-02-07T04:38:26;102873.02;;;-7.40;100.00
54600;BME280;40500;51.084;16.958;2023-02-07T04:40:59;102871.63;;;-7.49;100.00
54600;BME280;40500;51.084;16.958;2023-02-07T04:43:30;102867.20;;;-7.54;100.00
54600;BME280;40500;51.084;16.958;2023-02-07T04:46:03;102871.50;;;-7.56;100.00
54600;BME280;40500;51.084;16.958;2023-02-07T04:48:32;102875.34;;;-7.57;100.00
54600;BME280;40500;51.084;16.958;2023-02-07T04:51:13;102879.05;;;-7.59;100.00
54600;BME280;40500;51.084;16.958;2023-02-07T04:53:45;102882.57;;;-7.59;100.00
54600;BME280;40500;51.084;16.958;2023-02-07T04:56:15;102878.11;;;-7.60;100.00
54600;BME280;40500;51.084;16.958;2023-02-07T04:58:52;102880.98;;;-7.60;100.00
54600;BME280;40500;51.084;16.958;2023-02-07T05:01:23;102880.66;;;-7.58;100.00
54600;BME280;40500;51.084;16.958;2023-02-07T05:03:52;102889.72;;;-7.58;100.00
54600;BME280;40500;51.084;16.958;2023-02-07T05:06:38;102893.69;;;-7.55;100.00
54600;BME280;40500;51.084;16.958;2023-02-07T05:10:17;102886.06;;;-7.46;100.00
54600;BME280;40500;51.084;16.958;2023-02-07T05:13:23;102886.30;;;-7.35;100.00
54600;BME280;40500;51.084;16.958;2023-02-07T05:27:16;102858.65;;;-7.09;100.00
54600;BME280;40500;51.084;16.958;2023-02-07T05:30:17;102859.80;;;-7.05;100.00
54600;BME280;40500;51.084;16.958;2023-02-07T05:33:13;102856.48;;;-7.08;100.00
54600;BME280;40500;51.084;16.958;2023-02-07T05:35:54;102856.17;;;-7.11;100.00
54600;BME280;40500;51.084;16.958;2023-02-07T05:38:50;102855.52;;;-7.13;100.00
54600;BME280;40500;51.084;16.958;2023-02-07T05:41:23;102866.33;;;-7.08;100.00
54600;BME280;40500;51.084;16.958;2023-02-07T05:43:53;102872.53;;;-7.15;100.00
54600;BME280;40500;51.084;16.958;2023-02-07T05:46:23;102873.39;;;-7.22;100.00
54600;BME280;40500;51.084;16.958;2023-02-07T05:48:59;102877.27;;;-7.24;100.00
54600;BME280;40500;51.084;16.958;2023-02-07T05:51:29;102867.21;;;-7.28;100.00
54600;BME280;40500;51.084;16.958;2023-02-07T05:54:02;102867.86;;;-7.30;100.00
54600;BME280;40500;51.084;16.958;2023-02-07T05:56:32;102870.20;;;-7.27;100.00
54600;BME280;40500;51.084;16.958;2023-02-07T05:59:04;102866.99;;;-7.30;100.00
54600;BME280;40500;51.084;16.958;2023-02-07T06:01:34;102862.73;;;-7.32;100.00
54600;BME280;40500;51.084;16.958;2023-02-07T06:04:05;102867.83;;;-7.32;100.00
54600;BME280;40500;51.084;16.958;2023-02-07T06:06:35;102870.39;;;-7.34;100.00
54600;BME280;40500;51.084;16.958;2023-02-07T06:09:11;102883.42;;;-7.34;100.00
54600;BME280;40500;51.084;16.958;2023-02-07T06:11:45;102882.85;;;-7.37;100.00
54600;BME280;40500;51.084;16.958;2023-02-07T06:14:38;102881.14;;;-7.39;100.00
54600;BME280;40500;51.084;16.958;2023-02-07T06:17:34;102887.16;;;-7.40;100.00
54600;BME280;40500;51.084;16.958;2023-02-07T06:20:14;102887.80;;;-7.41;100.00
54600;BME280;40500;51.084;16.958;2023-02-07T06:23:05;102879.77;;;-7.42;100.00
54600;BME280;40500;51.084;16.958;2023-02-07T06:25:59;102881.82;;;-7.44;100.00
54600;BME280;40500;51.084;16.958;2023-02-07T06:28:42;102886.68;;;-7.46;100.00
54600;BME280;40500;51.084;16.958;2023-02-07T06:31:15;102883.17;;;-7.49;100.00
54600;BME280;40500;51.084;16.958;2023-02-07T06:33:45;102886.89;;;-7.44;100.00
54600;BME280;40500;51.084;16.958;2023-02-07T06:36:14;102890.00;;;-7.40;100.00
54600;BME280;40500;51.084;16.958;2023-02-07T06:38:42;102889.75;;;-7.34;100.00
54600;BME280;40500;51.084;16.958;2023-02-07T06:41:09;102894.42;;;-7.32;100.00
54600;BME280;40500;51.084;16.958;2023-02-07T06:43:38;102895.58;;;-7.30;100.00
54600;BME280;40500;51.084;16.958;2023-02-07T06:46:07;102900.33;;;-7.27;100.00
54600;BME280;40500;51.084;16.958;2023-02-07T06:48:36;102902.20;;;-7.22;100.00
54600;BME280;40500;51.084;16.958;2023-02-07T06:51:05;102901.16;;;-7.15;100.00
54600;BME280;40500;51.084;16.958;2023-02-07T06:53:33;102895.67;;;-7.07;100.00
54600;BME280;40500;51.084;16.958;2023-02-07T06:56:00;102897.15;;;-7.03;100.00
54600;BME280;40500;51.084;16.958;2023-02-07T06:58:28;102896.52;;;-6.97;100.00
54600;BME280;40500;51.084;16.958;2023-02-07T07:00:56;102907.58;;;-6.94;100.00
54600;BME280;40500;51.084;16.958;2023-02-07T07:03:23;102913.64;;;-6.91;100.00
54600;BME280;40500;51.084;16.958;2023-02-07T07:05:55;102916.27;;;-6.88;100.00
54600;BME280;40500;51.084;16.958;2023-02-07T07:08:32;102911.92;;;-6.87;100.00
54600;BME280;40500;51.084;16.958;2023-02-07T07:11:02;102906.73;;;-6.83;100.00
54600;BME280;40500;51.084;16.958;2023-02-07T07:13:30;102912.21;;;-6.77;100.00
54600;BME280;40500;51.084;16.958;2023-02-07T07:15:58;102911.14;;;-6.74;100.00
54600;BME280;40500;51.084;16.958;2023-02-07T07:18:25;102916.53;;;-6.69;100.00
54600;BME280;40500;51.084;16.958;2023-02-07T07:20:53;102919.68;;;-6.65;100.00
54600;BME280;40500;51.084;16.958;2023-02-07T07:23:24;102920.61;;;-6.56;100.00
54600;BME280;40500;51.084;16.958;2023-02-07T07:25:53;102919.42;;;-6.47;100.00
54600;BME280;40500;51.084;16.958;2023-02-07T07:28:23;102921.22;;;-6.41;100.00
54600;BME280;40500;51.084;16.958;2023-02-07T07:30:51;102924.05;;;-6.34;100.00
54600;BME280;40500;51.084;16.958;2023-02-07T07:33:18;102926.21;;;-6.27;100.00
54600;BME280;40500;51.084;16.958;2023-02-07T07:35:46;102932.54;;;-6.20;100.00
54600;BME280;40500;51.084;16.958;2023-02-07T07:38:14;102935.63;;;-6.12;100.00
54600;BME280;40500;51.084;16.958;2023-02-07T07:40:41;102942.09;;;-6.05;100.00
54600;BME280;40500;51.084;16.958;2023-02-07T07:43:11;102945.48;;;-6.00;100.00
54600;BME280;40500;51.084;16.958;2023-02-07T07:45:50;102945.70;;;-5.95;100.00
54600;BME280;40500;51.084;16.958;2023-02-07T07:48:18;102947.54;;;-5.93;100.00
54600;BME280;40500;51.084;16.958;2023-02-07T07:50:46;102944.77;;;-5.92;100.00
54600;BME280;40500;51.084;16.958;2023-02-07T07:53:14;102943.23;;;-5.88;100.00
54600;BME280;40500;51.084;16.958;2023-02-07T07:55:42;102937.17;;;-5.82;100.00
54600;BME280;40500;51.084;16.958;2023-02-07T07:58:14;102943.62;;;-5.77;100.00
54600;BME280;40500;51.084;16.958;2023-02-07T08:00:42;102950.07;;;-5.69;100.00
54600;BME280;40500;51.084;16.958;2023-02-07T08:03:10;102946.70;;;-5.63;100.00
54600;BME280;40500;51.084;16.958;2023-02-07T08:05:38;102954.27;;;-5.55;100.00
54600;BME280;40500;51.084;16.958;2023-02-07T08:08:06;102951.67;;;-5.48;100.00
54600;BME280;40500;51.084;16.958;2023-02-07T08:10:34;102947.14;;;-5.35;100.00
54600;BME280;40500;51.084;16.958;2023-02-07T08:13:04;102948.82;;;-4.95;100.00
54600;BME280;40500;51.084;16.958;2023-02-07T08:15:31;102953.63;;;-4.69;100.00
54600;BME280;40500;51.084;16.958;2023-02-07T08:18:00;102948.48;;;-4.68;100.00
54600;BME280;40500;51.084;16.958;2023-02-07T08:20:27;102944.31;;;-4.70;100.00
54600;BME280;40500;51.084;16.958;2023-02-07T08:22:55;102937.20;;;-4.73;100.00
54600;BME280;40500;51.084;16.958;2023-02-07T08:25:23;102938.74;;;-4.80;100.00
54600;BME280;40500;51.084;16.958;2023-02-07T08:27:51;102929.59;;;-4.81;100.00
54600;BME280;40500;51.084;16.958;2023-02-07T08:30:20;102925.20;;;-4.80;100.00
54600;BME280;40500;51.084;16.958;2023-02-07T08:32:48;102919.91;;;-4.82;100.00
54600;BME280;40500;51.084;16.958;2023-02-07T08:35:21;102915.52;;;-4.81;100.00
54600;BME280;40500;51.084;16.958;2023-02-07T08:37:50;102904.73;;;-4.78;100.00
54600;BME280;40500;51.084;16.958;2023-02-07T08:40:18;102903.28;;;-4.70;100.00
54600;BME280;40500;51.084;16.958;2023-02-07T08:42:46;102901.88;;;-4.61;100.00
54600;BME280;40500;51.084;16.958;2023-02-07T08:45:14;102903.42;;;-4.53;100.00
54600;BME280;40500;51.084;16.958;2023-02-07T08:47:43;102895.12;;;-4.46;100.00
54600;BME280;40500;51.084;16.958;2023-02-07T08:50:12;102890.72;;;-4.41;100.00
54600;BME280;40500;51.084;16.958;2023-02-07T08:52:40;102897.19;;;-4.36;100.00
54600;BME280;40500;51.084;16.958;2023-02-07T08:55:09;102900.33;;;-4.27;100.00
54600;BME280;40500;51.084;16.958;2023-02-07T08:57:37;102898.28;;;-4.16;100.00
54600;BME280;40500;51.084;16.958;2023-02-07T09:00:10;102899.00;;;-4.08;100.00
54600;BME280;40500;51.084;16.958;2023-02-07T09:02:38;102898.30;;;-4.02;100.00
54600;BME280;40500;51.084;16.958;2023-02-07T09:05:07;102900.14;;;-3.96;100.00
54600;BME280;40500;51.084;16.958;2023-02-07T09:07:35;102904.46;;;-3.87;100.00
54600;BME280;40500;51.084;16.958;2023-02-07T09:10:06;102908.02;;;-3.78;100.00
54600;BME280;40500;51.084;16.958;2023-02-07T09:12:35;102902.77;;;-3.68;100.00
54600;BME280;40500;51.084;16.958;2023-02-07T09:15:07;102899.60;;;-3.59;100.00
54600;BME280;40500;51.084;16.958;2023-02-07T09:17:35;102899.59;;;-3.50;100.00
54600;BME280;40500;51.084;16.958;2023-02-07T09:20:03;102899.62;;;-3.42;100.00
54600;BME280;40500;51.084;16.958;2023-02-07T09:22:31;102897.75;;;-3.35;100.00
54600;BME280;40500;51.084;16.958;2023-02-07T09:25:21;102900.56;;;-3.26;100.00
54600;BME280;40500;51.084;16.958;2023-02-07T09:27:51;102905.41;;;-3.14;100.00
54600;BME280;40500;51.084;16.958;2023-02-07T09:30:21;102910.08;;;-3.03;100.00
54600;BME280;40500;51.084;16.958;2023-02-07T09:32:51;102903.99;;;-2.94;100.00
54600;BME280;40500;51.084;16.958;2023-02-07T09:35:20;102903.84;;;-2.80;100.00
54600;BME280;40500;51.084;16.958;2023-02-07T09:37:52;102899.41;;;-2.69;100.00
54600;BME280;40500;51.084;16.958;2023-02-07T09:40:21;102902.73;;;-2.62;100.00
54600;BME280;40500;51.084;16.958;2023-02-07T09:42:55;102898.27;;;-2.50;100.00
54600;BME280;40500;51.084;16.958;2023-02-07T09:45:28;102900.59;;;-2.40;100.00
54600;BME280;40500;51.084;16.958;2023-02-07T09:48:01;102894.77;;;-2.33;100.00
54600;BME280;40500;51.084;16.958;2023-02-07T09:50:33;102897.16;;;-2.27;100.00
54600;BME280;40500;51.084;16.958;2023-02-07T09:53:07;102897.88;;;-2.20;100.00
54600;BME280;40500;51.084;16.958;2023-02-07T09:55:41;102898.89;;;-2.13;100.00
54600;BME280;40500;51.084;16.958;2023-02-07T09:58:16;102893.96;;;-2.08;100.00
54600;BME280;40500;51.084;16.958;2023-02-07T10:00:49;102897.14;;;-2.05;100.00
54600;BME280;40500;51.084;16.958;2023-02-07T10:03:21;102893.55;;;-2.02;100.00
54600;BME280;40500;51.084;16.958;2023-02-07T10:05:55;102891.64;;;-1.95;100.00
54600;BME280;40500;51.084;16.958;2023-02-07T10:08:33;102888.86;;;-1.87;100.00
54600;BME280;40500;51.084;16.958;2023-02-07T10:11:19;102887.20;;;-1.79;100.00
54600;BME280;40500;51.084;16.958;2023-02-07T10:14:09;102887.02;;;-1.65;100.00
54600;BME280;40500;51.084;16.958;2023-02-07T10:16:52;102886.98;;;-1.51;100.00
54600;BME280;40500;51.084;16.958;2023-02-07T10:19:36;102892.36;;;-1.46;100.00
54600;BME280;40500;51.084;16.958;2023-02-07T10:22:22;102889.41;;;-1.44;100.00
54600;BME280;40500;51.084;16.958;2023-02-07T10:24:59;102885.20;;;-1.43;100.00
54600;BME280;40500;51.084;16.958;2023-02-07T10:27:39;102882.65;;;-1.40;100.00
54600;BME280;40500;51.084;16.958;2023-02-07T10:30:11;102885.02;;;-1.36;100.00
54600;BME280;40500;51.084;16.958;2023-02-07T10:32:41;102885.85;;;-1.31;100.00
54600;BME280;40500;51.084;16.958;2023-02-07T10:35:17;102886.28;;;-1.30;100.00
54600;BME280;40500;51.084;16.958;2023-02-07T10:37:47;102876.52;;;-1.30;100.00
54600;BME280;40500;51.084;16.958;2023-02-07T10:40:19;102880.98;;;-1.27;100.00
54600;BME280;40500;51.084;16.958;2023-02-07T10:42:55;102879.77;;;-1.25;100.00
54600;BME280;40500;51.084;16.958;2023-02-07T10:45:26;102875.80;;;-1.23;100.00
54600;BME280;40500;51.084;16.958;2023-02-07T10:47:56;102875.71;;;-1.20;100.00
54600;BME280;40500;51.084;16.958;2023-02-07T10:50:26;102870.91;;;-1.12;100.00
54600;BME280;40500;51.084;16.958;2023-02-07T10:52:59;102870.82;;;-1.04;100.00
54600;BME280;40500;51.084;16.958;2023-02-07T10:55:40;102865.66;;;-0.99;100.00
54600;BME280;40500;51.084;16.958;2023-02-07T10:58:14;102862.53;;;-0.92;100.00
54600;BME280;40500;51.084;16.958;2023-02-07T11:00:51;102866.48;;;-0.87;100.00
54600;BME280;40500;51.084;16.958;2023-02-07T11:03:21;102869.96;;;-0.82;100.00
54600;BME280;40500;51.084;16.958;2023-02-07T11:05:57;102864.48;;;-0.76;100.00
54600;BME280;40500;51.084;16.958;2023-02-07T11:08:28;102868.79;;;-0.71;100.00
54600;BME280;40500;51.084;16.958;2023-02-07T11:10:58;102871.08;;;-0.65;100.00
54600;BME280;40500;51.084;16.958;2023-02-07T11:13:28;102866.90;;;-0.59;100.00
54600;BME280;40500;51.084;16.958;2023-02-07T11:15:59;102870.25;;;-0.50;100.00
54600;BME280;40500;51.084;16.958;2023-02-07T11:18:36;102872.59;;;-0.38;100.00
54600;BME280;40500;51.084;16.958;2023-02-07T11:21:23;102871.84;;;-0.27;100.00
54600;BME280;40500;51.084;16.958;2023-02-07T11:23:53;102874.98;;;-0.11;100.00
54600;BME280;40500;51.084;16.958;2023-02-07T11:26:23;102874.44;;;0.04;100.00
54600;BME280;40500;51.084;16.958;2023-02-07T11:28:53;102873.72;;;0.17;100.00
54600;BME280;40500;51.084;16.958;2023-02-07T11:31:28;102866.12;;;0.30;100.00
54600;BME280;40500;51.084;16.958;2023-02-07T11:34:23;102868.75;;;0.38;100.00
54600;BME280;40500;51.084;16.958;2023-02-07T11:36:54;102860.33;;;0.55;100.00
54600;BME280;40500;51.084;16.958;2023-02-07T11:39:22;102851.71;;;0.63;100.00
54600;BME280;40500;51.084;16.958;2023-02-07T11:41:57;102849.33;;;0.66;100.00
54600;BME280;40500;51.084;16.958;2023-02-07T11:44:29;102854.02;;;0.75;100.00
54600;BME280;40500;51.084;16.958;2023-02-07T11:47:02;102846.36;;;0.88;100.00
54600;BME280;40500;51.084;16.958;2023-02-07T11:49:39;102845.45;;;1.00;100.00
54600;BME280;40500;51.084;16.958;2023-02-07T11:52:09;102845.08;;;1.03;100.00
54600;BME280;40500;51.084;16.958;2023-02-07T11:54:38;102838.64;;;0.96;100.00
54600;BME280;40500;51.084;16.958;2023-02-07T11:57:11;102838.02;;;0.87;100.00
54600;BME280;40500;51.084;16.958;2023-02-07T11:59:45;102836.11;;;0.84;100.00
54600;BME280;40500;51.084;16.958;2023-02-07T12:02:19;102836.12;;;0.81;100.00
54600;BME280;40500;51.084;16.958;2023-02-07T12:04:47;102833.20;;;0.78;100.00
54600;BME280;40500;51.084;16.958;2023-02-07T12:07:18;102831.91;;;0.85;100.00
54600;BME280;40500;51.084;16.958;2023-02-07T12:09:54;102828.63;;;0.96;100.00
54600;BME280;40500;51.084;16.958;2023-02-07T12:12:33;102826.80;;;1.06;100.00
54600;BME280;40500;51.084;16.958;2023-02-07T12:15:08;102820.73;;;1.25;100.00
54600;BME280;40500;51.084;16.958;2023-02-07T12:17:41;102814.36;;;1.48;100.00
54600;BME280;40500;51.084;16.958;2023-02-07T12:20:23;102809.09;;;1.64;100.00
54600;BME280;40500;51.084;16.958;2023-02-07T12:22:55;102807.92;;;1.76;100.00
54600;BME280;40500;51.084;16.958;2023-02-07T12:25:47;102804.29;;;1.82;100.00
54600;BME280;40500;51.084;16.958;2023-02-07T12:28:23;102800.40;;;1.99;100.00
54600;BME280;40500;51.084;16.958;2023-02-07T12:30:55;102798.33;;;1.99;100.00
54600;BME280;40500;51.084;16.958;2023-02-07T12:33:32;102799.05;;;1.93;100.00
54600;BME280;40500;51.084;16.958;2023-02-07T12:36:07;102800.08;;;1.90;100.00
54600;BME280;40500;51.084;16.958;2023-02-07T12:38:43;102795.42;;;1.84;100.00
54600;BME280;40500;51.084;16.958;2023-02-07T12:41:15;102798.15;;;1.75;100.00
54600;BME280;40500;51.084;16.958;2023-02-07T12:43:52;102796.71;;;1.65;100.00
54600;BME280;40500;51.084;16.958;2023-02-07T12:46:33;102789.67;;;1.66;100.00
54600;BME280;40500;51.084;16.958;2023-02-07T12:49:26;102785.91;;;1.66;100.00
54600;BME280;40500;51.084;16.958;2023-02-07T12:52:13;102789.42;;;1.62;100.00
54600;BME280;40500;51.084;16.958;2023-02-07T12:54:52;102790.11;;;1.61;100.00
54600;BME280;40500;51.084;16.958;2023-02-07T12:57:26;102789.30;;;1.62;100.00
54600;BME280;40500;51.084;16.958;2023-02-07T13:00:05;102790.35;;;1.60;100.00
54600;BME280;40500;51.084;16.958;2023-02-07T13:02:53;102790.20;;;1.54;100.00
54600;BME280;40500;51.084;16.958;2023-02-07T13:05:42;102779.08;;;1.50;100.00
54600;BME280;40500;51.084;16.958;2023-02-07T13:08:18;102777.95;;;1.42;100.00
54600;BME280;40500;51.084;16.958;2023-02-07T13:10:58;102772.64;;;1.41;100.00
54600;BME280;40500;51.084;16.958;2023-02-07T13:13:31;102768.13;;;1.34;100.00
54600;BME280;40500;51.084;16.958;2023-02-07T13:16:08;102763.15;;;1.29;100.00
54600;BME280;40500;51.084;16.958;2023-02-07T13:18:42;102769.94;;;1.24;100.00
54600;BME280;40500;51.084;16.958;2023-02-07T13:21:21;102765.06;;;1.17;100.00
54600;BME280;40500;51.084;16.958;2023-02-07T13:23:50;102767.00;;;1.10;100.00
54600;BME280;40500;51.084;16.958;2023-02-07T13:26:22;102765.00;;;0.96;100.00
54600;BME280;40500;51.084;16.958;2023-02-07T13:28:55;102763.38;;;0.93;100.00
54600;BME280;40500;51.084;16.958;2023-02-07T13:31:28;102761.80;;;0.89;100.00
54600;BME280;40500;51.084;16.958;2023-02-07T13:33:57;102759.40;;;0.87;100.00
54600;BME280;40500;51.084;16.958;2023-02-07T13:36:30;102759.11;;;0.82;100.00
54600;BME280;40500;51.084;16.958;2023-02-07T13:39:07;102757.08;;;0.74;100.00
54600;BME280;40500;51.084;16.958;2023-02-07T13:41:48;102758.98;;;0.72;100.00
54600;BME280;40500;51.084;16.958;2023-02-07T13:44:23;102758.56;;;0.71;100.00
54600;BME280;40500;51.084;16.958;2023-02-07T13:47:20;102757.77;;;0.69;100.00
54600;BME280;40500;51.084;16.958;2023-02-07T13:49:59;102755.85;;;0.68;100.00
54600;BME280;40500;51.084;16.958;2023-02-07T13:52:36;102751.55;;;0.66;100.00
54600;BME280;40500;51.084;16.958;2023-02-07T13:55:21;102750.00;;;0.69;100.00
54600;BME280;40500;51.084;16.958;2023-02-07T13:57:52;102744.92;;;0.67;100.00
54600;BME280;40500;51.084;16.958;2023-02-07T14:01:06;102742.63;;;0.67;100.00
54600;BME280;40500;51.084;16.958;2023-02-07T14:03:35;102749.61;;;0.65;100.00